Архив погоды в Благодарном

Метеограмма Благодарный
Пятница, 20 Июля
Время местн. Темп Ветер Видим Явления Облачность нижн/средн/верх Атм. давл. Влжн Точка росы ВНГО R Сост. почвы Tg s
Напр Скр Прв ур.ст ур.м изм
21:00 +23.6° штиль 0 - 20 км - облачно 742 756 +1.4 64% +16.5° 1 км - - - -
18:00 +29.3° С-З 3 - 20 км - преимущественно облачно 741 754 +0.2 36% +12.8° 1 км - - - -
15:00 +30.4° Ю 1 - 20 км - переменная облачность 740 754 -0.6 35% +13° 1 км - - - -
12:00 +30.2° С-З 1 - 20 км - облачно с прояснениями 741 754 -0.4 36% +13.4° 1 км - - - -
09:00 +24.9° Ю-З 1 - 20 км - облачно с прояснениями 741 755 -0.3 58% +16.2° 1 км - - - -
06:00 +18.6° штиль 0 - 20 км - облачно с прояснениями 742 756 +0.8 82% +15.4° 1 км - Сухая (без трещин) - -
03:00 +18.4° Ю-З 1 - 20 км - ясно 741 755 +0.1 84% +15.7° более 2.5 км - - - -
00:00 +20.1° З 1 - 20 км - ясно 741 755 +1.5 77% +16° более 2.5 км - - - -
Четверг, 19 Июля
Время местн. Темп Ветер Видим Явления Облачность нижн/средн/верх Атм. давл. Влжн Точка росы ВНГО R Сост. почвы Tg s
Напр Скр Прв ур.ст ур.м изм
21:00 +22.4° Ю 2 - 20 км небо без изменений {гроза} облачно 739 753 -0.3 67% +16° 1 км - - - -
18:00 +27.5° Ю 3 - 20 км гроза без осадков облачно 740 753 +1.9 52% +16.7° 1 км - - - -
15:00 +34.1° Ю 1 - 20 км - облачно с прояснениями 738 751 -0.6 26% +11.8° 1 км - - - -
12:00 +31° Ю 1 - 20 км - переменная облачность 738 752 -0.8 37% +14.6° 1 км - - - -
09:00 +26° В,Ю-В 1 - 20 км - переменная облачность 739 753 -0.4 59% +17.3° 1 км - - - -
06:00 +21.9° В,С-В 1 - 20 км - переменная облачность 740 754 +0.5 67% +15.5° 1 км - Сухая (без трещин) - -
03:00 +20.9° В 1 - 20 км - ясно 739 753 -0.4 67% +14.6° более 2.5 км - - - -
00:00 +22.7° С-В 2 - 20 км - ясно 740 753 -0.2 61% +14.8° более 2.5 км - - - -
Среда, 18 Июля
Время местн. Темп Ветер Видим Явления Облачность нижн/средн/верх Атм. давл. Влжн Точка росы ВНГО R Сост. почвы Tg s
Напр Скр Прв ур.ст ур.м изм
21:00 +24.1° С-В 1 - 20 км - ясно 740 754 +0.3 54% +14.2° более 2.5 км - - - -
18:00 +31.5° В 2 - 20 км - переменная облачность 739 753 -0.4 30% +11.7° 1 км - - - -
15:00 +31.3° В 3 - 20 км - переменная облачность 740 753 -1 30% +11.8° 1.5 км - - - -
12:00 +29.8° В 2 - 20 км - переменная облачность 741 754 -0.9 31% +10.9° 1 км - - - -
09:00 +26° Ю,Ю-З 1 - 20 км облака развиваются {ливневые осадки} переменная облачность 742 755 -0.2 45% +13.2° - - - - -
06:00 +19.6° штиль 0 - 20 км облака рассеиваются {ливневые осадки} незначительная облачность 742 756 -0.3 93% +18.4° - - Влажная (без луж) - -
03:00 +19.7° В 1 - 20 км ливневый дождь облачно 742 756 +0.5 87% +17.5° 1 км - - - -
00:00 +21.6° штиль 0 - 20 км - переменная облачность 742 756 +0.2 61% +13.8° 1 км - - - -
Вторник, 17 Июля
Время местн. Темп Ветер Видим Явления Облачность нижн/средн/верх Атм. давл. Влжн Точка росы ВНГО R Сост. почвы Tg s
Напр Скр Прв ур.ст ур.м изм
21:00 +24.9° З,С-З 2 - 20 км - переменная облачность 741 755 +1.1 45% +12.3° 1 км - - - -
18:00 +29.5° З 3 - 20 км - переменная облачность 740 754 +0.3 29% +9.4° - - - - -